Time;durP1;ratioP1;P1;durP2;ratioP2;P2;SDS_P1;SDS_P2;PMS_P1;PMS_P2;Temp;Humidity;BMP_temperature;BMP_pressure;BME280_temperature;BME280_humidity;BME280_pressure;Samples;Min_cycle;Max_cycle;Signal;HPM_P1;HPM_P2
2024/02/27 00:01:45;;;;;;;23.07;13.27;;;6.50;99.90;;;;;;7278670;19;20185;-78
2024/02/27 00:04:10;;;;;;;22.37;12.83;;;6.50;99.90;;;;;;7275091;19;20201;-78
2024/02/27 00:06:37;;;;;;;24.80;13.03;;;6.50;99.90;;;;;;7289377;19;20690;-77
2024/02/27 00:09:05;;;;;;;25.03;13.77;;;6.60;99.90;;;;;;7299943;19;20558;-76
2024/02/27 00:11:31;;;;;;;23.83;12.53;;;6.60;99.90;;;;;;7277814;19;20195;-77
2024/02/27 00:13:56;;;;;;;24.70;12.63;;;6.50;99.90;;;;;;7277153;19;20686;-77
2024/02/27 00:16:22;;;;;;;24.00;12.80;;;6.50;99.90;;;;;;7275871;19;20192;-77
2024/02/27 00:18:48;;;;;;;25.77;13.17;;;6.50;99.90;;;;;;7276598;19;20195;-78
2024/02/27 00:21:14;;;;;;;22.30;13.00;;;6.60;99.90;;;;;;7276396;19;20201;-77
2024/02/27 00:23:40;;;;;;;23.97;12.53;;;6.60;99.90;;;;;;7276157;19;20794;-77
2024/02/27 00:26:06;;;;;;;21.83;12.30;;;6.60;99.90;;;;;;7275269;19;20219;-77
2024/02/27 00:28:32;;;;;;;23.07;12.60;;;6.60;99.90;;;;;;7299849;19;20188;-77
2024/02/27 00:30:57;;;;;;;21.00;12.20;;;6.60;99.90;;;;;;7277066;19;20181;-77
2024/02/27 00:33:23;;;;;;;21.23;11.90;;;6.60;99.90;;;;;;7283198;19;20244;-77
2024/02/27 00:35:49;;;;;;;23.30;12.17;;;6.60;99.90;;;;;;7283071;19;20185;-78
2024/02/27 00:38:15;;;;;;;24.97;12.53;;;6.50;99.90;;;;;;7285083;19;20192;-76
2024/02/27 00:40:41;;;;;;;21.80;11.57;;;6.60;99.90;;;;;;7283736;19;20545;-76
2024/02/27 00:43:06;;;;;;;25.47;13.30;;;6.50;99.90;;;;;;7284585;19;20256;-76
2024/02/27 00:45:32;;;;;;;20.63;10.87;;;6.30;99.90;;;;;;7306362;19;20194;-79
2024/02/27 00:47:58;;;;;;;21.17;11.93;;;6.40;99.90;;;;;;7282888;19;20188;-76
2024/02/27 00:50:24;;;;;;;23.43;11.30;;;6.30;99.90;;;;;;7284073;19;20636;-76
2024/02/27 00:52:50;;;;;;;20.27;10.27;;;6.20;99.90;;;;;;7281698;19;20644;-79
2024/02/27 00:55:16;;;;;;;23.37;11.87;;;6.10;99.90;;;;;;7282988;19;20261;-76
2024/02/27 00:57:42;;;;;;;22.67;12.40;;;6.10;99.90;;;;;;7283325;19;20214;-76
2024/02/27 01:00:11;;;;;;;22.07;12.07;;;6.00;99.90;;;;;;7283100;19;20223;-77
2024/02/27 01:02:38;;;;;;;23.17;12.23;;;6.10;99.90;;;;;;7282503;19;20212;-76
2024/02/27 01:05:05;;;;;;;23.37;13.37;;;6.00;99.90;;;;;;7288301;19;20220;-76
2024/02/27 01:07:31;;;;;;;21.23;11.67;;;5.90;99.90;;;;;;7304365;19;20305;-77
2024/02/27 01:09:57;;;;;;;25.83;13.33;;;6.00;99.90;;;;;;7283656;19;20212;-77
2024/02/27 01:12:24;;;;;;;23.53;13.43;;;6.00;99.90;;;;;;7282875;19;20199;-76
2024/02/27 01:14:50;;;;;;;27.13;12.47;;;6.10;99.90;;;;;;7280974;19;20552;-76
2024/02/27 01:17:16;;;;;;;25.77;13.63;;;6.20;99.90;;;;;;7283160;19;20193;-77
2024/02/27 01:19:42;;;;;;;23.27;13.47;;;6.30;99.90;;;;;;7282812;19;20216;-76
2024/02/27 01:22:08;;;;;;;24.80;12.80;;;6.30;99.90;;;;;;7281255;19;20203;-76
2024/02/27 01:24:34;;;;;;;24.07;13.60;;;6.20;99.90;;;;;;7295653;19;20565;-75
2024/02/27 01:27:00;;;;;;;24.43;13.73;;;6.10;99.90;;;;;;7298154;19;20186;-77
2024/02/27 01:29:26;;;;;;;23.90;13.20;;;6.00;99.90;;;;;;7282297;19;20546;-76
2024/02/27 01:31:52;;;;;;;24.37;13.50;;;6.00;99.90;;;;;;7281779;19;20278;-76
2024/02/27 01:34:18;;;;;;;23.93;13.17;;;5.90;99.90;;;;;;7281962;19;20195;-76
2024/02/27 01:36:45;;;;;;;23.97;13.03;;;5.90;99.90;;;;;;7281815;19;20189;-76
2024/02/27 01:39:11;;;;;;;23.47;13.73;;;5.90;99.90;;;;;;7282433;19;20723;-76
2024/02/27 01:41:39;;;;;;;24.03;12.67;;;6.00;99.90;;;;;;7280550;19;20196;-76
2024/02/27 01:44:07;;;;;;;23.23;13.10;;;6.00;99.90;;;;;;7281283;19;20192;-76
2024/02/27 01:46:33;;;;;;;24.40;13.67;;;6.00;99.90;;;;;;7303422;19;20653;-77
2024/02/27 01:48:58;;;;;;;25.70;13.40;;;6.10;99.90;;;;;;7280192;19;20192;-76
2024/02/27 01:51:25;;;;;;;25.90;13.83;;;6.00;99.90;;;;;;7281257;19;20193;-77
2024/02/27 01:53:53;;;;;;;24.43;13.87;;;6.00;99.90;;;;;;7280668;19;20185;-77
2024/02/27 01:56:20;;;;;;;27.57;14.20;;;6.10;99.90;;;;;;7280201;19;20185;-77
2024/02/27 01:58:46;;;;;;;24.00;13.50;;;6.20;99.90;;;;;;7282130;19;20569;-77
2024/02/27 02:01:13;;;;;;;22.40;12.80;;;6.30;99.90;;;;;;7281403;19;20193;-77
2024/02/27 02:03:40;;;;;;;26.20;14.70;;;6.20;99.90;;;;;;7280967;19;20196;-77
2024/02/27 02:06:07;;;;;;;25.93;13.90;;;6.20;99.90;;;;;;7280796;19;20580;-77
2024/02/27 02:08:37;;;;;;;24.43;13.33;;;6.10;99.90;;;;;;7301690;19;20192;-77
2024/02/27 02:11:06;;;;;;;23.37;12.50;;;6.00;99.90;;;;;;7281547;19;20763;-77
2024/02/27 02:13:33;;;;;;;24.30;12.77;;;5.90;99.90;;;;;;7281563;19;20189;-77
2024/02/27 02:15:59;;;;;;;24.67;13.63;;;6.00;99.90;;;;;;7280129;19;20241;-77
2024/02/27 02:18:25;;;;;;;25.70;14.20;;;6.10;99.90;;;;;;7282059;19;20207;-77
2024/02/27 02:20:50;;;;;;;24.30;13.10;;;6.10;99.90;;;;;;7280307;19;20238;-77
2024/02/27 02:23:16;;;;;;;25.33;13.17;;;6.10;99.90;;;;;;7279101;19;20753;-77
2024/02/27 02:25:43;;;;;;;28.60;14.83;;;6.10;99.90;;;;;;7279696;19;20252;-77
2024/02/27 02:28:09;;;;;;;26.37;14.97;;;6.10;99.90;;;;;;7279968;19;20189;-76
2024/02/27 02:30:35;;;;;;;28.37;15.03;;;6.20;99.90;;;;;;7283173;19;20597;-76
2024/02/27 02:33:00;;;;;;;29.43;14.80;;;6.10;99.90;;;;;;7301494;19;20186;-77
2024/02/27 02:35:26;;;;;;;27.93;15.03;;;6.20;99.90;;;;;;7278429;19;20196;-77
2024/02/27 02:37:52;;;;;;;29.67;15.47;;;6.20;99.90;;;;;;7279665;19;20216;-77
2024/02/27 02:40:19;;;;;;;26.90;15.07;;;6.10;99.90;;;;;;7279801;19;20746;-77
2024/02/27 02:42:46;;;;;;;28.57;15.90;;;6.10;99.90;;;;;;7278922;19;20688;-77
2024/02/27 02:45:12;;;;;;;31.70;15.93;;;6.20;99.90;;;;;;7280299;19;20186;-77
2024/02/27 02:47:39;;;;;;;29.23;15.80;;;6.30;99.90;;;;;;7279693;19;20177;-77
2024/02/27 02:50:06;;;;;;;29.13;16.43;;;6.20;99.90;;;;;;7287127;19;20295;-76
2024/02/27 02:52:32;;;;;;;28.43;14.87;;;6.20;99.90;;;;;;7300329;19;20263;-77
2024/02/27 02:54:58;;;;;;;29.70;15.57;;;6.00;99.90;;;;;;7280153;19;20260;-77
2024/02/27 02:57:24;;;;;;;31.57;15.77;;;6.00;99.90;;;;;;7280236;19;20690;-77
2024/02/27 02:59:50;;;;;;;33.23;16.03;;;6.00;99.90;;;;;;7280817;19;20195;-77
2024/02/27 03:02:16;;;;;;;28.60;16.07;;;6.10;99.90;;;;;;7278737;19;20217;-77
2024/02/27 03:04:41;;;;;;;30.40;16.53;;;5.90;99.90;;;;;;7277730;19;20190;-77
2024/02/27 03:07:07;;;;;;;31.23;15.63;;;6.00;99.90;;;;;;7280173;19;20219;-77
2024/02/27 03:09:33;;;;;;;30.87;16.73;;;6.00;99.90;;;;;;7298545;19;20645;-77
2024/02/27 03:12:00;;;;;;;30.03;16.40;;;6.10;99.90;;;;;;7288337;19;20195;-76
2024/02/27 03:14:26;;;;;;;29.40;15.90;;;6.00;99.90;;;;;;7277821;19;20185;-77
2024/02/27 03:16:53;;;;;;;28.50;14.60;;;6.00;99.90;;;;;;7280385;19;20278;-77
2024/02/27 03:19:18;;;;;;;29.80;15.67;;;5.80;99.90;;;;;;7277788;19;20187;-77
2024/02/27 03:21:44;;;;;;;31.10;17.23;;;5.80;99.90;;;;;;7278392;19;20204;-76
2024/02/27 03:24:10;;;;;;;30.20;15.93;;;5.80;99.90;;;;;;7277704;19;20204;-77
2024/02/27 03:26:36;;;;;;;29.97;15.67;;;5.80;99.90;;;;;;7280030;19;20184;-77
2024/02/27 03:29:02;;;;;;;30.60;16.43;;;5.70;99.90;;;;;;7299615;19;20248;-76
2024/02/27 03:31:28;;;;;;;30.47;17.33;;;5.80;99.90;;;;;;7279423;19;20195;-77
2024/02/27 03:33:54;;;;;;;30.47;16.53;;;5.80;99.90;;;;;;7278188;19;20194;-77
2024/02/27 03:36:19;;;;;;;30.80;17.10;;;5.70;99.90;;;;;;7277482;19;20204;-77
2024/02/27 03:38:45;;;;;;;31.60;16.57;;;5.60;99.90;;;;;;7277650;19;20237;-76
2024/02/27 03:41:14;;;;;;;30.40;16.97;;;5.50;99.90;;;;;;7276453;19;20207;-77
2024/02/27 03:43:41;;;;;;;29.97;15.60;;;5.50;99.90;;;;;;7275754;19;20202;-77
2024/02/27 03:46:07;;;;;;;29.77;16.67;;;5.60;99.90;;;;;;7276118;19;20255;-77
2024/02/27 03:48:33;;;;;;;34.43;17.43;;;5.60;99.90;;;;;;7296443;19;20196;-76
2024/02/27 03:50:59;;;;;;;31.90;15.83;;;5.70;99.90;;;;;;7288419;19;20189;-77
2024/02/27 03:53:27;;;;;;;32.40;17.27;;;5.70;99.90;;;;;;7277818;19;20849;-77
2024/02/27 03:55:53;;;;;;;31.10;16.37;;;5.60;99.90;;;;;;7277424;19;21299;-77
2024/02/27 03:58:19;;;;;;;31.47;15.80;;;5.60;99.90;;;;;;7277070;19;20193;-76
2024/02/27 04:00:44;;;;;;;32.70;17.30;;;5.60;99.90;;;;;;7276413;19;20530;-76
2024/02/27 04:03:10;;;;;;;32.20;17.17;;;5.60;99.90;;;;;;7275677;19;20190;-76
2024/02/27 04:05:36;;;;;;;33.63;17.43;;;5.70;99.90;;;;;;7276993;19;20218;-76
2024/02/27 04:08:03;;;;;;;31.93;16.80;;;5.60;99.90;;;;;;7305087;19;20749;-77
2024/02/27 04:10:28;;;;;;;34.43;17.70;;;5.60;99.90;;;;;;7290311;19;20702;-77
2024/02/27 04:12:54;;;;;;;32.37;16.83;;;5.60;99.90;;;;;;7283964;19;20241;-77
2024/02/27 04:15:20;;;;;;;30.93;17.13;;;5.80;99.90;;;;;;7284263;19;20557;-77
2024/02/27 04:17:46;;;;;;;31.90;16.97;;;5.70;99.90;;;;;;7281780;19;20188;-77
2024/02/27 04:20:11;;;;;;;30.60;16.20;;;5.90;99.90;;;;;;7284026;19;20185;-77
2024/02/27 04:22:37;;;;;;;34.83;18.40;;;5.90;99.90;;;;;;7283199;19;20702;-77
2024/02/27 04:25:03;;;;;;;32.13;17.30;;;5.90;99.90;;;;;;7304695;19;20188;-77
2024/02/27 04:27:29;;;;;;;31.90;16.33;;;6.00;99.90;;;;;;7283943;19;20196;-77
2024/02/27 04:29:55;;;;;;;31.80;17.63;;;5.90;99.90;;;;;;7282978;19;20185;-77
2024/02/27 04:32:21;;;;;;;31.40;16.67;;;5.90;99.90;;;;;;7281925;19;20214;-77
2024/02/27 04:34:46;;;;;;;32.90;18.47;;;5.90;99.90;;;;;;7283289;19;20722;-77
2024/02/27 04:37:12;;;;;;;31.37;16.87;;;5.90;99.90;;;;;;7283700;19;20189;-77
2024/02/27 04:39:42;;;;;;;32.83;18.37;;;5.90;99.90;;;;;;7283520;19;20477;-77
2024/02/27 04:42:08;;;;;;;33.17;16.57;;;6.00;99.90;;;;;;7283457;19;20786;-77
2024/02/27 04:44:33;;;;;;;35.43;18.83;;;5.90;99.90;;;;;;7301680;19;20172;-77
2024/02/27 04:46:59;;;;;;;33.60;17.07;;;5.90;99.90;;;;;;7294062;19;20184;-77
2024/02/27 04:49:25;;;;;;;31.17;16.20;;;5.80;99.90;;;;;;7282949;19;20188;-77
2024/02/27 04:51:50;;;;;;;32.77;18.00;;;5.70;99.90;;;;;;7283140;19;20206;-77
2024/02/27 04:54:16;;;;;;;29.33;16.90;;;5.70;99.90;;;;;;7282733;19;20185;-78
2024/02/27 04:56:42;;;;;;;30.73;17.47;;;5.70;99.90;;;;;;7282935;19;20591;-77
2024/02/27 04:59:08;;;;;;;33.83;16.53;;;5.90;99.90;;;;;;7283594;19;20196;-77
2024/02/27 05:01:33;;;;;;;29.93;16.53;;;5.90;99.90;;;;;;7302200;19;20265;-77
2024/02/27 05:03:59;;;;;;;33.17;17.30;;;5.70;99.90;;;;;;7290848;19;20297;-78
2024/02/27 05:06:25;;;;;;;29.60;16.97;;;5.70;99.90;;;;;;7283658;19;20743;-77
2024/02/27 05:08:50;;;;;;;29.80;16.60;;;5.80;99.90;;;;;;7282857;19;20188;-77
2024/02/27 05:11:16;;;;;;;30.87;16.87;;;5.80;99.90;;;;;;7282831;19;20183;-78
2024/02/27 05:13:42;;;;;;;32.20;16.67;;;5.80;99.90;;;;;;7282164;19;20789;-77
2024/02/27 05:16:08;;;;;;;30.07;15.63;;;5.90;99.90;;;;;;7283044;19;20192;-77
2024/02/27 05:18:34;;;;;;;30.83;17.27;;;6.00;99.90;;;;;;7298391;19;20205;-77
2024/02/27 05:21:02;;;;;;;29.23;15.77;;;6.10;99.90;;;;;;7295501;19;20255;-77
2024/02/27 05:23:28;;;;;;;28.83;15.97;;;6.00;99.90;;;;;;7279383;19;20180;-77
2024/02/27 05:25:53;;;;;;;27.17;15.20;;;6.00;99.90;;;;;;7281703;19;20218;-77
2024/02/27 05:28:19;;;;;;;31.37;17.17;;;6.00;99.90;;;;;;7281144;19;20198;-77
2024/02/27 05:30:46;;;;;;;29.73;16.30;;;6.00;99.90;;;;;;7281429;19;20305;-77
2024/02/27 05:33:12;;;;;;;35.17;16.60;;;6.10;99.90;;;;;;7282035;19;20187;-77
2024/02/27 05:35:37;;;;;;;29.67;15.97;;;6.00;99.90;;;;;;7282520;19;20187;-77
2024/02/27 05:38:03;;;;;;;31.10;16.43;;;6.20;99.90;;;;;;7306755;19;20189;-77
2024/02/27 05:40:29;;;;;;;34.67;16.63;;;6.20;99.90;;;;;;7283185;19;20293;-77
2024/02/27 05:42:55;;;;;;;33.03;16.03;;;6.20;99.90;;;;;;7281125;19;21480;-78
2024/02/27 05:45:21;;;;;;;31.60;16.40;;;6.00;99.90;;;;;;7279893;19;20304;-77
2024/02/27 05:47:47;;;;;;;31.83;17.80;;;6.00;99.90;;;;;;7281764;19;20212;-77
2024/02/27 05:50:13;;;;;;;29.17;16.27;;;6.00;99.90;;;;;;7281898;19;20661;-77
2024/02/27 05:52:38;;;;;;;28.73;16.83;;;6.00;99.90;;;;;;7280319;19;20193;-78
2024/02/27 05:55:05;;;;;;;29.87;15.93;;;5.90;99.90;;;;;;7295147;19;20194;-77
2024/02/27 05:57:31;;;;;;;32.23;16.97;;;5.80;99.90;;;;;;7302536;19;20201;-78
2024/02/27 05:59:57;;;;;;;32.20;17.67;;;5.90;99.90;;;;;;7280082;19;20185;-78
2024/02/27 06:02:22;;;;;;;31.70;17.03;;;5.90;99.90;;;;;;7280884;19;20537;-78
2024/02/27 06:04:48;;;;;;;28.87;15.97;;;5.90;99.90;;;;;;7281443;19;20190;-77
2024/02/27 06:07:14;;;;;;;29.97;16.60;;;5.70;99.90;;;;;;7280420;19;20197;-78
2024/02/27 06:09:40;;;;;;;30.00;16.47;;;5.70;99.90;;;;;;7281745;19;20568;-78
2024/02/27 06:12:06;;;;;;;30.30;16.20;;;5.70;99.90;;;;;;7281619;19;20187;-78
2024/02/27 06:14:32;;;;;;;28.40;15.77;;;5.80;99.90;;;;;;7301946;19;20200;-79
2024/02/27 06:16:57;;;;;;;31.33;16.23;;;5.80;99.90;;;;;;7280926;19;20682;-79
2024/02/27 06:19:26;;;;;;;30.50;16.20;;;5.70;99.90;;;;;;7279706;19;25635;-78
2024/02/27 06:22:13;;;;;;;30.47;16.70;;;5.70;99.90;;;;;;7280740;19;20200;-78
2024/02/27 06:24:39;;;;;;;28.90;15.77;;;5.80;99.90;;;;;;7178525;19;2004570;-78
2024/02/27 06:27:07;;;;;;;30.53;16.83;;;5.60;99.90;;;;;;7288095;19;20244;-80
2024/02/27 06:29:32;;;;;;;29.20;15.93;;;5.60;99.90;;;;;;7301076;19;20699;-79
2024/02/27 06:31:58;;;;;;;32.17;16.33;;;5.70;99.90;;;;;;7279939;19;20204;-79
2024/02/27 06:34:24;;;;;;;32.73;17.17;;;5.80;99.90;;;;;;7280490;19;20200;-79
2024/02/27 06:36:50;;;;;;;28.90;16.43;;;5.90;99.90;;;;;;7283008;19;20218;-78
2024/02/27 06:39:16;;;;;;;29.33;15.70;;;5.90;99.90;;;;;;7280104;19;20211;-78
2024/02/27 06:41:50;;;;;;;27.37;15.00;;;5.90;99.90;;;;;;7280718;19;20189;-78
2024/02/27 06:44:18;;;;;;;33.50;16.87;;;5.80;99.90;;;;;;7280749;19;20213;-78
2024/02/27 06:46:45;;;;;;;30.97;16.60;;;5.70;99.90;;;;;;7280246;19;20276;-78
2024/02/27 06:49:11;;;;;;;31.73;16.93;;;5.80;99.90;;;;;;7278492;19;20656;-77
2024/02/27 06:51:37;;;;;;;29.77;16.53;;;5.80;99.90;;;;;;7279160;19;20209;-77
2024/02/27 06:54:03;;;;;;;28.83;15.73;;;5.70;99.90;;;;;;7302728;19;20188;-79
2024/02/27 06:56:30;;;;;;;31.03;15.87;;;5.70;99.90;;;;;;7279414;19;20191;-79
2024/02/27 06:58:56;;;;;;;30.33;16.90;;;5.70;99.90;;;;;;7279814;19;20188;-79
2024/02/27 07:01:23;;;;;;;31.63;16.27;;;5.70;99.90;;;;;;7278529;19;20237;-79
2024/02/27 07:03:52;;;;;;;29.50;16.40;;;5.80;99.90;;;;;;7281120;19;20534;-80
2024/02/27 07:06:18;;;;;;;36.60;18.37;;;5.80;99.90;;;;;;7277978;19;20773;-80
2024/02/27 07:08:47;;;;;;;27.40;15.40;;;5.80;99.90;;;;;;7277711;19;20209;-79
2024/02/27 07:11:14;;;;;;;29.40;16.13;;;5.80;99.90;;;;;;7280642;19;20267;-79
2024/02/27 07:13:39;;;;;;;31.73;17.17;;;5.70;99.90;;;;;;7280606;19;20205;-79
2024/02/27 07:16:06;;;;;;;30.63;16.90;;;5.70;99.90;;;;;;7282898;19;20191;-79
2024/02/27 07:18:31;;;;;;;29.03;15.97;;;5.80;99.90;;;;;;7302174;19;20184;-80
2024/02/27 07:20:58;;;;;;;30.17;17.07;;;5.70;99.90;;;;;;7279655;19;20186;-79
2024/02/27 07:23:24;;;;;;;32.40;16.10;;;5.60;99.90;;;;;;7279746;19;20203;-79
2024/02/27 07:25:50;;;;;;;30.83;16.50;;;5.60;99.90;;;;;;7279552;19;20196;-79
2024/02/27 07:28:16;;;;;;;29.87;16.23;;;5.70;99.90;;;;;;7278585;19;20215;-79
2024/02/27 07:30:43;;;;;;;34.80;18.30;;;5.90;99.90;;;;;;7278315;19;20737;-78
2024/02/27 07:33:08;;;;;;;34.17;18.20;;;5.90;99.90;;;;;;7277689;19;20185;-77
2024/02/27 07:35:34;;;;;;;30.67;16.93;;;5.90;99.90;;;;;;7292417;19;20193;-78
2024/02/27 07:38:00;;;;;;;34.07;18.03;;;6.00;99.90;;;;;;7293035;19;20235;-78
2024/02/27 07:40:26;;;;;;;31.53;17.53;;;5.90;99.90;;;;;;7276509;19;20563;-78
2024/02/27 07:42:51;;;;;;;34.37;18.63;;;5.70;99.90;;;;;;7274291;19;20648;-78
2024/02/27 07:45:17;;;;;;;30.07;17.30;;;5.50;99.90;;;;;;7279150;19;20204;-77
2024/02/27 07:47:45;;;;;;;34.40;18.10;;;5.60;99.90;;;;;;7277752;19;20197;-78
2024/02/27 07:50:11;;;;;;;32.03;18.40;;;5.60;99.90;;;;;;7277973;19;20203;-78
2024/02/27 07:52:37;;;;;;;35.07;18.53;;;5.70;99.90;;;;;;7276350;19;20195;-77
2024/02/27 07:55:03;;;;;;;33.93;17.50;;;5.70;99.90;;;;;;7299333;19;20195;-78
2024/02/27 07:57:28;;;;;;;35.93;19.43;;;5.70;99.90;;;;;;7278371;19;20185;-78
2024/02/27 07:59:54;;;;;;;32.63;17.63;;;5.80;99.90;;;;;;7277752;19;20579;-78
2024/02/27 08:02:21;;;;;;;36.80;19.73;;;5.80;99.90;;;;;;7277989;19;20196;-78
2024/02/27 08:04:47;;;;;;;35.97;19.23;;;5.80;99.90;;;;;;7278946;19;20225;-78
2024/02/27 08:07:13;;;;;;;39.13;18.67;;;5.90;99.90;;;;;;7276761;19;20201;-78
2024/02/27 08:09:39;;;;;;;33.87;18.20;;;5.90;99.90;;;;;;7276562;19;20555;-78
2024/02/27 08:12:05;;;;;;;35.33;19.10;;;5.90;99.90;;;;;;7291954;19;20188;-77
2024/02/27 08:14:32;;;;;;;35.13;19.60;;;5.90;99.90;;;;;;7297628;19;20205;-78
2024/02/27 08:16:58;;;;;;;35.10;19.63;;;5.90;99.90;;;;;;7277096;19;20192;-78
2024/02/27 08:19:26;;;;;;;35.57;20.10;;;6.10;99.90;;;;;;7277027;19;20202;-78
2024/02/27 08:21:52;;;;;;;31.20;18.00;;;6.30;99.90;;;;;;7277735;19;20190;-78
2024/02/27 08:24:18;;;;;;;32.30;19.27;;;6.50;99.90;;;;;;7276371;19;20191;-78
2024/02/27 08:26:45;;;;;;;36.80;19.40;;;6.60;99.90;;;;;;7277617;19;20257;-78
2024/02/27 08:29:11;;;;;;;33.80;18.57;;;6.50;99.90;;;;;;7278298;19;20256;-78
2024/02/27 08:31:37;;;;;;;31.13;18.00;;;6.40;99.90;;;;;;7275883;19;20181;-78
2024/02/27 08:34:09;;;;;;;34.07;19.03;;;6.30;99.90;;;;;;7276706;19;20217;-78
2024/02/27 08:36:35;;;;;;;35.13;19.03;;;6.10;99.90;;;;;;7285711;19;20696;-77
2024/02/27 08:39:04;;;;;;;32.00;18.47;;;6.10;99.90;;;;;;7297484;19;20193;-77
2024/02/27 08:41:30;;;;;;;33.23;18.30;;;6.10;99.90;;;;;;7289318;19;20268;-78
2024/02/27 08:43:55;;;;;;;36.67;18.60;;;6.10;99.90;;;;;;7276867;19;20196;-78
2024/02/27 08:46:22;;;;;;;33.77;19.30;;;6.10;99.90;;;;;;7277408;19;20200;-78
2024/02/27 08:48:49;;;;;;;36.37;20.00;;;6.30;99.90;;;;;;7278846;19;20197;-78
2024/02/27 08:51:15;;;;;;;36.60;18.90;;;6.20;99.90;;;;;;7277775;19;20569;-77
2024/02/27 08:53:41;;;;;;;35.60;19.67;;;6.10;99.90;;;;;;7279073;19;20189;-78
2024/02/27 08:56:06;;;;;;;38.03;20.03;;;6.00;99.90;;;;;;7281909;19;20193;-78
2024/02/27 08:58:34;;;;;;;36.17;19.77;;;6.00;99.90;;;;;;7306715;19;20205;-78
2024/02/27 09:00:59;;;;;;;35.93;20.50;;;5.90;99.90;;;;;;7283711;19;20256;-78
2024/02/27 09:03:25;;;;;;;37.83;20.03;;;6.00;99.90;;;;;;7282805;19;20191;-78
2024/02/27 09:05:51;;;;;;;38.03;20.67;;;6.00;99.90;;;;;;7283853;19;20197;-78
2024/02/27 09:08:17;;;;;;;35.77;19.87;;;6.00;99.90;;;;;;7281910;19;20196;-78
2024/02/27 09:10:44;;;;;;;36.77;20.90;;;6.00;99.90;;;;;;7283470;19;21044;-78
2024/02/27 09:13:10;;;;;;;34.67;19.60;;;6.10;99.90;;;;;;7282023;19;20237;-77
2024/02/27 09:15:35;;;;;;;37.43;20.33;;;6.20;99.90;;;;;;7288572;19;20188;-78
2024/02/27 09:18:01;;;;;;;37.47;19.97;;;6.20;99.90;;;;;;7303969;19;20556;-78
2024/02/27 09:20:30;;;;;;;35.80;19.37;;;6.20;99.90;;;;;;7284126;19;20560;-78
2024/02/27 09:22:59;;;;;;;35.77;20.17;;;6.10;99.90;;;;;;7281061;19;20198;-78
2024/02/27 09:25:25;;;;;;;38.17;20.80;;;6.10;99.90;;;;;;7283098;19;20307;-78
2024/02/27 09:27:51;;;;;;;34.80;20.07;;;6.00;99.90;;;;;;7280434;19;20270;-78
2024/02/27 09:30:17;;;;;;;39.40;21.03;;;6.10;99.90;;;;;;7280804;19;20189;-78
2024/02/27 09:32:42;;;;;;;37.07;20.47;;;6.10;99.90;;;;;;7282294;19;20664;-78
2024/02/27 09:35:09;;;;;;;35.57;20.00;;;6.30;99.90;;;;;;7281020;19;20189;-77
2024/02/27 09:37:37;;;;;;;32.47;18.47;;;6.50;99.90;;;;;;7297217;19;20189;-77
2024/02/27 09:40:05;;;;;;;32.23;18.57;;;6.70;99.90;;;;;;7303195;19;20240;-78
2024/02/27 09:42:33;;;;;;;32.37;18.03;;;6.80;99.90;;;;;;7281108;19;20586;-78
2024/02/27 09:44:59;;;;;;;30.90;17.83;;;6.80;99.90;;;;;;7281199;19;20193;-80
2024/02/27 09:47:25;;;;;;;31.93;18.13;;;6.70;99.90;;;;;;7282167;19;20202;-79
2024/02/27 09:49:53;;;;;;;32.57;18.53;;;6.60;99.90;;;;;;7280819;19;20197;-74
2024/02/27 09:52:21;;;;;;;33.23;18.83;;;6.70;99.90;;;;;;7273649;19;20266;-77
2024/02/27 09:54:48;;;;;;;37.77;19.00;;;6.80;99.90;;;;;;7280822;19;20185;-78
2024/02/27 09:57:15;;;;;;;33.43;18.77;;;6.90;99.90;;;;;;7281360;19;20609;-78
2024/02/27 09:59:41;;;;;;;32.60;19.67;;;7.20;99.90;;;;;;7281685;19;20206;-78
2024/02/27 10:02:12;;;;;;;34.83;18.83;;;7.50;99.90;;;;;;7281855;19;20659;-77
2024/02/27 10:04:39;;;;;;;35.97;20.33;;;7.60;99.90;;;;;;7279799;19;20198;-78
2024/02/27 10:07:06;;;;;;;31.13;18.43;;;7.90;99.90;;;;;;7295387;19;20185;-77
2024/02/27 10:09:45;;;;;;;29.17;17.90;;;8.30;99.90;;;;;;7303688;19;20196;-78
2024/02/27 10:12:12;;;;;;;29.73;17.33;;;8.60;99.90;;;;;;7178729;19;2004517;-77
2024/02/27 10:14:39;;;;;;;28.30;16.87;;;9.20;99.90;;;;;;7281545;19;20220;-80
2024/02/27 10:17:09;;;;;;;26.53;16.57;;;9.90;99.90;;;;;;7295646;19;20182;-79
2024/02/27 10:19:37;;;;;;;28.33;16.27;;;10.40;99.90;;;;;;7299603;19;20194;-79
2024/02/27 10:22:03;;;;;;;25.33;15.63;;;11.20;99.90;;;;;;7302881;19;20186;-79
2024/02/27 10:24:29;;;;;;;26.13;16.20;;;11.60;99.90;;;;;;7280465;19;20188;-81
2024/02/27 10:26:58;;;;;;;26.77;15.37;;;11.70;99.90;;;;;;7281372;19;20181;-79
2024/02/27 10:29:26;;;;;;;26.77;15.30;;;11.60;99.90;;;;;;7279905;19;20188;-80
2024/02/27 10:31:51;;;;;;;26.40;16.03;;;12.10;99.90;;;;;;7281797;19;20189;-80
2024/02/27 10:34:22;;;;;;;22.47;14.67;;;12.70;99.90;;;;;;7281632;19;20189;-81
2024/02/27 10:37:04;;;;;;;23.77;15.27;;;13.40;99.90;;;;;;7280131;19;20686;-79
2024/02/27 10:39:34;;;;;;;23.77;15.53;;;14.70;99.90;;;;;;7281960;19;20204;-79
2024/02/27 10:42:00;;;;;;;25.33;15.80;;;14.00;99.90;;;;;;7279376;19;20269;-80
2024/02/27 10:44:26;;;;;;;23.93;16.37;;;13.70;99.90;;;;;;7279710;19;20325;-79
2024/02/27 10:46:55;;;;;;;25.23;16.70;;;13.30;99.90;;;;;;7281579;19;20552;-80
2024/02/27 10:49:22;;;;;;;25.00;15.60;;;12.50;99.90;;;;;;7285991;19;20189;-79
2024/02/27 10:51:48;;;;;;;25.47;16.80;;;13.10;99.90;;;;;;7284246;19;20690;-79
2024/02/27 10:54:18;;;;;;;26.20;15.60;;;13.00;99.90;;;;;;7281316;19;20556;-78
2024/02/27 10:56:46;;;;;;;24.83;15.57;;;12.20;99.90;;;;;;7278710;19;20193;-79
2024/02/27 10:59:12;;;;;;;26.17;16.23;;;11.80;99.90;;;;;;7284105;19;20598;-79
2024/02/27 11:01:40;;;;;;;23.80;15.53;;;11.90;99.90;;;;;;7280486;19;20186;-79
2024/02/27 11:04:08;;;;;;;22.67;14.47;;;12.20;99.90;;;;;;7281572;19;20192;-79
2024/02/27 11:06:38;;;;;;;33.47;22.70;;;12.90;99.90;;;;;;7303306;19;20190;-79
2024/02/27 11:09:10;;;;;;;23.17;14.70;;;12.90;99.90;;;;;;7280226;19;20201;-79
2024/02/27 11:11:41;;;;;;;23.63;14.63;;;13.20;99.90;;;;;;7264960;19;20674;-78
2024/02/27 11:14:08;;;;;;;21.47;14.13;;;13.60;99.90;;;;;;7279926;19;20189;-78
2024/02/27 11:16:38;;;;;;;23.00;14.70;;;14.10;99.90;;;;;;7301435;19;20187;-79
2024/02/27 11:19:12;;;;;;;23.00;14.67;;;14.00;99.90;;;;;;7280195;19;20292;-78
2024/02/27 11:21:40;;;;;;;22.20;14.13;;;14.00;99.90;;;;;;7257818;19;20187;-78
2024/02/27 11:24:06;;;;;;;19.60;12.60;;;14.20;99.90;;;;;;7282452;19;20701;-79
2024/02/27 11:26:33;;;;;;;21.90;13.13;;;14.20;99.90;;;;;;7301784;19;20212;-79
2024/02/27 11:28:59;;;;;;;17.80;12.43;;;14.20;99.90;;;;;;7279537;19;20216;-79
2024/02/27 11:31:26;;;;;;;19.83;12.17;;;13.90;99.90;;;;;;7279701;19;20732;-79
2024/02/27 11:33:52;;;;;;;17.83;11.70;;;14.10;99.90;;;;;;7279773;19;20284;-79
2024/02/27 11:36:18;;;;;;;20.00;12.43;;;14.00;99.90;;;;;;7279353;19;20255;-78
2024/02/27 11:38:44;;;;;;;19.80;12.67;;;14.00;99.90;;;;;;7280048;19;20549;-77
2024/02/27 11:41:17;;;;;;;19.50;12.83;;;14.30;99.90;;;;;;7280402;19;20284;-77
2024/02/27 11:43:46;;;;;;;17.77;12.13;;;15.60;99.90;;;;;;7278267;19;20197;-77
2024/02/27 11:46:26;;;;;;;20.20;11.53;;;15.40;99.90;;;;;;7278413;19;20437;-77
2024/02/27 11:48:53;;;;;;;22.23;11.87;;;16.00;99.90;;;;;;7277454;19;20185;-77
2024/02/27 11:51:40;;;;;;;18.90;12.17;;;15.70;99.90;;;;;;7280790;19;20210;-76
2024/02/27 11:54:11;;;;;;;17.70;12.10;;;15.50;99.90;;;;;;7262293;19;20199;-76
2024/02/27 11:56:41;;;;;;;18.03;11.13;;;15.40;99.90;;;;;;7277558;19;20877;-77
2024/02/27 11:59:13;;;;;;;17.87;11.20;;;14.90;99.90;;;;;;7279867;19;20640;-79
2024/02/27 12:01:39;;;;;;;17.23;10.90;;;14.90;99.90;;;;;;7279145;19;20224;-79
2024/02/27 12:04:07;;;;;;;18.70;10.57;;;15.30;99.90;;;;;;7294168;19;20190;-79
2024/02/27 12:06:33;;;;;;;15.73;10.90;;;15.60;99.90;;;;;;7300563;19;20189;-77
2024/02/27 12:08:59;;;;;;;16.83;10.30;;;15.50;99.90;;;;;;7279424;19;20185;-78
2024/02/27 12:11:26;;;;;;;14.37;9.53;;;15.20;99.90;;;;;;7277855;19;20686;-76
2024/02/27 12:13:52;;;;;;;16.53;10.53;;;14.80;99.90;;;;;;7278455;19;20673;-76
2024/02/27 12:16:25;;;;;;;17.03;10.53;;;14.50;99.90;;;;;;7279376;19;20193;-77
2024/02/27 12:18:56;;;;;;;17.10;10.63;;;14.50;99.90;;;;;;7280938;19;20198;-77
2024/02/27 12:21:32;;;;;;;16.43;10.43;;;14.60;99.90;;;;;;7277758;19;20678;-76
2024/02/27 12:24:20;;;;;;;16.30;9.90;;;14.90;99.90;;;;;;7325407;19;20196;-77
2024/02/27 12:26:47;;;;;;;16.57;10.23;;;15.60;99.90;;;;;;7389619;19;20153;-77
2024/02/27 12:29:17;;;;;;;15.43;9.83;;;15.20;99.90;;;;;;7329318;19;20225;-79
2024/02/27 12:31:43;;;;;;;15.50;9.80;;;15.30;99.90;;;;;;7290501;19;20197;-77
2024/02/27 12:34:11;;;;;;;15.77;9.90;;;15.50;99.90;;;;;;7289215;19;20204;-78